Terminal Aerodrome Forecast
Issued by NWS Wilmington, OH

Home | Current Version | Previous Version | Text Only | Print | Product List | Glossary On
Versions: 1 2 3 4 5 6 7 8 9 10 11 12 13 14 15 16 17 18 19 20
000
FTUS41 KILN 161100
TAFILN
TAF
KILN 161127Z 1612/1712 01007KT P6SM OVC008
     FM161500 01007KT P6SM BKN015
     FM161900 02007KT P6SM BKN025
     FM162100 VRB03KT P6SM SCT035
     FM170000 VRB02KT P6SM SKC
     FM170600 00000KT 4SM BR SKC
     FM170700 00000KT 1/2SM FG VV001=

USA.gov is the U.S. government's official web portal to all federal, state and local government web resources and services.